»·PEaware :: N767U KAJO-F70

N767U :: KAJO-F70

FLIGHT INFORMATION

Flight Status: Arrived
Operator: Privately registered:
United States
More flights under this callsign
Pilot: Cameron P. (33262)
Aircraft: CESSNA 172 SKYHAWK
(C172)
More flights by this aircraft type
Origin: KAJO Corona Mun
United States
Destination: F70 French Valley
United States
More flights between these airports :: More routes between these airports
Route:
File this flight plan on PilotEdge
Remarks:
Altitude:
(Current/Filed)
5,500ft
Speed:
(Current/Filed)
120kts
Departed: 13-Jan-21 11:22 AM
Arrived: 13-Jan-21 11:59 AM
Distance/Time
Traveled:
31nm/0:37
Distance/Time
To Go:
Arrived

Flight Plot

Page will automatically refresh every two minutes.


Map Options




Map Legend


Flown Route
Filed Route
Departure Airport
Arrival Airport
Navaid (VOR, NDB)
Fix

Horizontal Profiles

Position Reports

Time Latitude Longitude Heading Altitude Ground
Speed
13-Jan-21 11:06 33.896978 -117.607296 180 537ft 0kts
13-Jan-21 11:07 33.896978 -117.607296 180 537ft 0kts
13-Jan-21 11:08 33.896978 -117.607296 180 537ft 0kts
13-Jan-21 11:09 33.896978 -117.607296 180 537ft 0kts
13-Jan-21 11:10 33.896978 -117.607296 180 537ft 0kts
13-Jan-21 11:11 33.896978 -117.607296 180 537ft 0kts
13-Jan-21 11:12 33.896978 -117.607296 180 537ft 0kts
13-Jan-21 11:13 33.896978 -117.607296 180 537ft 0kts
13-Jan-21 11:14 33.896978 -117.607296 180 537ft 0kts
13-Jan-21 11:15 33.896978 -117.607296 180 537ft 0kts
13-Jan-21 11:16 33.896978 -117.607296 180 537ft 0kts
13-Jan-21 11:17 33.897013 -117.606567 63 537ft 18kts
13-Jan-21 11:18 33.897285 -117.601214 91 537ft 33kts
13-Jan-21 11:19 33.897363 -117.597231 339 537ft 0kts
13-Jan-21 11:20 33.897749 -117.597515 285 537ft 11kts
13-Jan-21 11:21 33.897235 -117.609255 267 736ft 87kts
13-Jan-21 11:22 33.892855 -117.626049 231 1419ft 82kts
13-Jan-21 11:23 33.881974 -117.623631 108 1821ft 87kts
13-Jan-21 11:24 33.879376 -117.608556 90 2096ft 100kts
13-Jan-21 11:25 33.880125 -117.592781 79 2786ft 81kts
13-Jan-21 11:26 33.887312 -117.580275 36 3273ft 83kts
13-Jan-21 11:27 33.894948 -117.567481 65 3381ft 102kts
13-Jan-21 11:28 33.884880 -117.555183 156 3767ft 110kts
13-Jan-21 11:29 33.865423 -117.546598 151 4535ft 87kts
13-Jan-21 11:30 33.847771 -117.536753 148 5101ft 89kts
13-Jan-21 11:31 33.830290 -117.524719 141 5462ft 107kts
13-Jan-21 11:32 33.811509 -117.509590 137 5578ft 106kts
13-Jan-21 11:33 33.794627 -117.494074 135 5427ft 109kts
13-Jan-21 11:34 33.777072 -117.475558 130 5360ft 123kts
13-Jan-21 11:35 33.760892 -117.454464 126 5496ft 116kts
13-Jan-21 11:36 33.745778 -117.431621 123 5450ft 132kts
13-Jan-21 11:37 33.731224 -117.409603 125 5494ft 117kts
13-Jan-21 11:38 33.717889 -117.388344 123 5528ft 114kts
13-Jan-21 11:39 33.705044 -117.368042 125 5501ft 117kts
13-Jan-21 11:40 33.692494 -117.348349 125 5501ft 115kts
13-Jan-21 11:41 33.679514 -117.329618 127 5494ft 120kts
13-Jan-21 11:42 33.664987 -117.309785 132 5394ft 132kts
13-Jan-21 11:43 33.649352 -117.290700 131 5426ft 129kts
13-Jan-21 11:44 33.634914 -117.270955 127 5272ft 128kts
13-Jan-21 11:45 33.621514 -117.251532 125 5110ft 134kts
13-Jan-21 11:46 33.610466 -117.228437 118 4965ft 137kts
13-Jan-21 11:47 33.601889 -117.205809 110 4629ft 140kts
13-Jan-21 11:48 33.593626 -117.184877 115 4247ft 130kts
13-Jan-21 11:49 33.585405 -117.164545 110 3618ft 129kts
13-Jan-21 11:50 33.577808 -117.144343 113 3152ft 117kts
13-Jan-21 11:51 33.570706 -117.124401 113 2873ft 104kts
13-Jan-21 11:52 33.558153 -117.109407 142 2759ft 111kts
13-Jan-21 11:53 33.543927 -117.108826 191 2842ft 100kts
13-Jan-21 11:55 33.541143 -117.118188 324 2817ft 68kts
13-Jan-21 11:56 33.546041 -117.127289 319 2406ft 73kts
13-Jan-21 11:57 33.554689 -117.132441 352 1908ft 77kts
13-Jan-21 11:58 33.564861 -117.130913 10 1404ft 59kts
13-Jan-21 11:59 33.570267 -117.130115 300 1354ft 0kts
13-Jan-21 12:00 33.570971 -117.130138 14 1354ft 20kts
13-Jan-21 12:01 33.572350 -117.130883 70 1354ft 1kts
13-Jan-21 12:02 33.572375 -117.130779 91 1354ft 0kts
13-Jan-21 12:03 33.572375 -117.130779 91 1354ft 0kts

Navigation Log

Ident Type
Flight plan parsing failed, navigation log unavailable